createdAt,value
2017-10-14T00:00:44.132Z,11.90
2017-10-14T00:03:12.086Z,11.50
2017-10-14T00:05:39.983Z,11.63
2017-10-14T00:08:07.940Z,12.97
2017-10-14T00:10:35.834Z,11.87
2017-10-14T00:13:03.724Z,9.03
2017-10-14T00:15:32.445Z,12.43
2017-10-14T00:18:00.335Z,9.43
2017-10-14T00:20:28.272Z,7.43
2017-10-14T00:22:56.226Z,7.70
2017-10-14T00:25:24.165Z,11.80
2017-10-14T00:27:52.056Z,12.20
2017-10-14T00:30:20.005Z,11.90
2017-10-14T00:32:47.953Z,7.37
2017-10-14T00:35:15.919Z,9.10
2017-10-14T00:37:43.811Z,7.27
2017-10-14T00:40:11.761Z,10.43
2017-10-14T00:42:39.679Z,9.27
2017-10-14T00:45:11.491Z,10.68
2017-10-14T00:47:39.405Z,8.27
2017-10-14T00:50:07.354Z,8.63
2017-10-14T00:52:36.022Z,10.52
2017-10-14T00:55:04.010Z,9.75
2017-10-14T00:57:32.774Z,12.23
2017-10-14T01:00:00.809Z,7.00
2017-10-14T01:02:28.712Z,9.77
2017-10-14T01:04:56.720Z,8.18
2017-10-14T01:07:25.400Z,14.73
2017-10-14T01:09:53.373Z,9.30
2017-10-14T01:12:22.045Z,9.95
2017-10-14T01:14:51.146Z,8.88
2017-10-14T01:17:19.073Z,12.45
2017-10-14T01:19:47.105Z,12.07
2017-10-14T01:22:15.075Z,6.93
2017-10-14T01:24:43.090Z,9.25
2017-10-14T01:27:11.131Z,6.25
2017-10-14T01:29:39.142Z,18.73
2017-10-14T01:32:07.173Z,7.12
2017-10-14T01:34:35.150Z,10.35
2017-10-14T01:37:03.169Z,14.45
2017-10-14T01:39:31.136Z,15.30
2017-10-14T01:41:59.164Z,10.60
2017-10-14T01:44:27.388Z,16.60
2017-10-14T01:46:55.365Z,10.27
2017-10-14T01:49:23.332Z,17.12
2017-10-14T01:51:51.360Z,14.07
2017-10-14T01:54:19.347Z,19.83
2017-10-14T01:56:47.347Z,11.73
2017-10-14T01:59:15.316Z,8.20
2017-10-14T02:01:43.325Z,10.75
2017-10-14T02:04:11.252Z,14.05
2017-10-14T02:06:39.242Z,9.10
2017-10-14T02:09:07.174Z,7.00
2017-10-14T02:11:35.145Z,5.30
2017-10-14T02:14:03.287Z,9.20
2017-10-14T02:16:31.270Z,11.10
2017-10-14T02:18:59.177Z,6.15
2017-10-14T02:21:27.095Z,8.20
2017-10-14T02:23:55.040Z,7.57
2017-10-14T02:26:22.934Z,8.13
2017-10-14T02:28:50.881Z,8.05
2017-10-14T02:31:18.786Z,8.00
2017-10-14T02:33:46.737Z,13.82
2017-10-14T02:36:14.649Z,10.88
2017-10-14T02:38:42.604Z,10.25
2017-10-14T02:41:10.507Z,8.55
2017-10-14T02:43:38.631Z,12.70
2017-10-14T02:46:06.540Z,16.95
2017-10-14T02:48:34.482Z,11.48
2017-10-14T02:51:02.392Z,7.60
2017-10-14T02:53:30.333Z,13.70
2017-10-14T02:55:58.236Z,17.30
2017-10-14T02:58:26.954Z,10.77
2017-10-14T03:00:54.829Z,12.75
2017-10-14T03:03:22.754Z,14.60
2017-10-14T03:05:50.632Z,13.60
2017-10-14T03:08:19.328Z,15.30
2017-10-14T03:10:47.985Z,13.15
2017-10-14T03:13:16.098Z,8.95
2017-10-14T03:15:43.989Z,10.85
2017-10-14T03:18:11.914Z,10.32
2017-10-14T03:20:39.990Z,12.55
2017-10-14T03:23:08.725Z,8.95
2017-10-14T03:25:36.631Z,10.65
2017-10-14T03:28:04.525Z,11.10
2017-10-14T03:30:33.227Z,12.63
2017-10-14T03:33:01.117Z,10.13
2017-10-14T03:35:29.068Z,12.93
2017-10-14T03:37:56.941Z,6.07
2017-10-14T03:40:24.878Z,12.90
2017-10-14T03:42:59.309Z,12.55
2017-10-14T03:45:28.004Z,14.63
2017-10-14T03:47:55.892Z,11.95
2017-10-14T03:50:23.832Z,7.32
2017-10-14T03:52:51.724Z,9.35
2017-10-14T03:55:19.670Z,13.73
2017-10-14T03:57:47.563Z,10.45
2017-10-14T04:00:15.499Z,6.68
2017-10-14T04:02:43.397Z,9.15
2017-10-14T04:05:11.321Z,6.85
2017-10-14T04:07:39.206Z,8.35
2017-10-14T04:10:07.905Z,8.02
2017-10-14T04:12:36.556Z,6.20
2017-10-14T04:15:04.509Z,7.18
2017-10-14T04:17:32.655Z,5.55
2017-10-14T04:20:00.585Z,5.57
2017-10-14T04:22:28.468Z,7.55
2017-10-14T04:24:56.390Z,6.03
2017-10-14T04:27:24.292Z,6.40
2017-10-14T04:29:52.223Z,5.05
2017-10-14T04:32:20.106Z,7.75
2017-10-14T04:34:47.999Z,8.15
2017-10-14T04:37:15.944Z,7.25
2017-10-14T04:39:43.845Z,8.02
2017-10-14T04:42:12.565Z,14.65
2017-10-14T04:44:40.442Z,7.75
2017-10-14T04:47:08.438Z,9.20
2017-10-14T04:49:36.374Z,8.27
2017-10-14T04:52:04.301Z,15.65
2017-10-14T04:54:32.210Z,12.93
2017-10-14T04:57:00.145Z,8.02
2017-10-14T04:59:28.023Z,9.05
2017-10-14T05:01:55.954Z,19.37
2017-10-14T05:04:23.926Z,5.20
2017-10-14T05:06:51.848Z,10.55
2017-10-14T05:09:19.733Z,7.07
2017-10-14T05:11:47.694Z,8.38
2017-10-14T05:14:20.232Z,7.15
2017-10-14T05:16:48.171Z,8.18
2017-10-14T05:19:16.063Z,8.82
2017-10-14T05:21:43.985Z,7.55
2017-10-14T05:24:24.655Z,12.55
2017-10-14T05:26:52.574Z,8.82
2017-10-14T05:29:20.456Z,8.80
2017-10-14T05:31:52.211Z,5.22
2017-10-14T05:34:26.506Z,9.95
2017-10-14T05:36:59.957Z,7.30
2017-10-14T05:39:30.109Z,10.32
2017-10-14T05:42:03.863Z,10.05
2017-10-14T05:44:37.378Z,6.55
2017-10-14T05:47:11.989Z,6.22
2017-10-14T05:49:46.383Z,8.95
2017-10-14T05:52:21.296Z,6.35
2017-10-14T05:54:54.016Z,6.57
2017-10-14T05:57:25.809Z,7.18
2017-10-14T05:59:58.476Z,6.50
2017-10-14T06:02:34.098Z,10.43
2017-10-14T06:05:08.840Z,7.78
2017-10-14T06:07:40.370Z,6.90
2017-10-14T06:10:08.347Z,5.87
2017-10-14T06:12:36.267Z,8.13
2017-10-14T06:15:04.151Z,20.40
2017-10-14T06:17:32.075Z,10.23
2017-10-14T06:19:59.954Z,8.63
2017-10-14T06:22:27.874Z,8.23
2017-10-14T06:24:55.765Z,10.13
2017-10-14T06:27:23.642Z,6.85
2017-10-14T06:29:52.326Z,8.63
2017-10-14T06:32:21.024Z,14.65
2017-10-14T06:34:51.886Z,8.82
2017-10-14T06:37:19.773Z,38.60
2017-10-14T06:39:47.708Z,6.35
2017-10-14T06:42:15.593Z,13.77
2017-10-14T06:44:43.545Z,9.70
2017-10-14T06:47:11.448Z,9.50
2017-10-14T06:49:39.396Z,11.45
2017-10-14T06:52:07.273Z,7.37
2017-10-14T06:54:35.200Z,8.48
2017-10-14T06:57:03.859Z,11.00
2017-10-14T06:59:31.809Z,7.00
2017-10-14T07:01:59.711Z,7.57
2017-10-14T07:04:27.844Z,7.18
2017-10-14T07:06:55.756Z,8.93
2017-10-14T07:09:23.701Z,8.00
2017-10-14T07:11:51.600Z,12.67
2017-10-14T07:14:19.540Z,9.43
2017-10-14T07:16:47.508Z,9.63
2017-10-14T07:19:15.444Z,10.60
2017-10-14T07:21:43.326Z,6.67
2017-10-14T07:24:11.277Z,8.00
2017-10-14T07:26:39.188Z,6.63
2017-10-14T07:29:07.138Z,9.23
2017-10-14T07:31:35.010Z,7.23
2017-10-14T07:34:04.955Z,8.03
2017-10-14T07:36:32.906Z,8.33
2017-10-14T07:39:00.789Z,6.47
2017-10-14T07:41:28.711Z,9.70
2017-10-14T07:43:56.608Z,8.10
2017-10-14T07:46:24.550Z,6.40
2017-10-14T07:48:52.442Z,6.23
2017-10-14T07:51:20.398Z,7.43
2017-10-14T07:53:48.516Z,8.27
2017-10-14T07:56:16.415Z,7.60
2017-10-14T07:58:45.312Z,5.83
2017-10-14T08:01:13.380Z,6.07
2017-10-14T08:03:50.020Z,4.53
2017-10-14T08:06:24.246Z,4.63
2017-10-14T08:08:55.934Z,5.07
2017-10-14T08:11:24.105Z,7.20
2017-10-14T08:13:52.037Z,5.50
2017-10-14T08:16:20.043Z,4.13
2017-10-14T08:18:48.733Z,3.27
2017-10-14T08:21:16.697Z,4.70
2017-10-14T08:23:44.602Z,6.73
2017-10-14T08:26:12.601Z,3.70
2017-10-14T08:28:40.544Z,4.63
2017-10-14T08:31:08.521Z,10.37
2017-10-14T08:33:36.469Z,3.50
2017-10-14T08:36:04.423Z,3.47
2017-10-14T08:38:32.302Z,5.53
2017-10-14T08:41:00.276Z,3.43
2017-10-14T08:43:31.299Z,6.70
2017-10-14T08:45:59.985Z,4.23
2017-10-14T08:48:28.706Z,3.33
2017-10-14T08:50:56.613Z,3.30
2017-10-14T08:53:24.581Z,3.30
2017-10-14T08:55:52.499Z,3.63
2017-10-14T08:58:20.458Z,5.87
2017-10-14T09:00:48.438Z,3.10
2017-10-14T09:03:16.867Z,3.70
2017-10-14T09:05:44.893Z,4.03
2017-10-14T09:08:12.853Z,3.20
2017-10-14T09:10:40.824Z,7.20
2017-10-14T09:13:09.808Z,2.83
2017-10-14T09:15:37.749Z,3.27
2017-10-14T09:18:05.800Z,2.40
2017-10-14T09:20:33.797Z,2.00
2017-10-14T09:23:02.389Z,2.20
2017-10-14T09:25:30.536Z,4.23
2017-10-14T09:27:59.397Z,3.30
2017-10-14T09:30:27.381Z,2.20
2017-10-14T09:32:55.453Z,2.90
2017-10-14T09:35:23.493Z,4.10
2017-10-14T09:37:51.522Z,3.30
2017-10-14T09:40:19.547Z,2.13
2017-10-14T09:42:48.709Z,8.30
2017-10-14T09:45:17.453Z,2.50
2017-10-14T09:47:45.425Z,2.80
2017-10-14T09:50:14.522Z,2.70
2017-10-14T09:52:43.380Z,2.27
2017-10-14T09:55:11.314Z,4.07
2017-10-14T09:57:39.225Z,5.53
2017-10-14T10:00:07.184Z,4.13
2017-10-14T10:02:35.166Z,2.70
2017-10-14T10:05:03.190Z,2.07
2017-10-14T10:07:32.086Z,2.10
2017-10-14T10:10:00.054Z,1.17
2017-10-14T10:12:27.969Z,3.57
2017-10-14T10:14:55.953Z,3.87
2017-10-14T10:17:23.885Z,5.73
2017-10-14T10:19:52.616Z,3.43
2017-10-14T10:22:20.521Z,9.00
2017-10-14T10:24:48.493Z,5.07
2017-10-14T10:27:16.435Z,2.43
2017-10-14T10:29:44.373Z,3.10
2017-10-14T10:32:12.296Z,2.53
2017-10-14T10:34:40.298Z,5.43
2017-10-14T10:37:08.229Z,1.80
2017-10-14T10:39:36.168Z,5.40
2017-10-14T10:42:04.906Z,3.97
2017-10-14T10:44:33.199Z,7.80
2017-10-14T10:47:01.941Z,2.77
2017-10-14T10:49:29.948Z,1.57
2017-10-14T10:51:57.958Z,3.43
2017-10-14T10:54:26.118Z,1.53
2017-10-14T10:56:54.054Z,1.47
2017-10-14T10:59:22.019Z,1.40
2017-10-14T11:01:49.974Z,4.03
2017-10-14T11:04:18.030Z,4.03
2017-10-14T11:06:46.043Z,2.03
2017-10-14T11:09:14.174Z,2.57
2017-10-14T11:11:42.080Z,1.47
2017-10-14T11:14:10.021Z,4.63
2017-10-14T11:16:38.063Z,3.10
2017-10-14T11:19:06.036Z,1.80
2017-10-14T11:21:34.018Z,3.87
2017-10-14T11:24:03.144Z,2.10
2017-10-14T11:26:31.200Z,1.70
2017-10-14T11:29:00.032Z,4.10
2017-10-14T11:31:28.059Z,2.37
2017-10-14T11:33:56.037Z,2.70
2017-10-14T11:36:24.188Z,1.30
2017-10-14T11:38:52.182Z,2.77
2017-10-14T11:41:20.202Z,2.90
2017-10-14T11:43:54.869Z,1.53
2017-10-14T11:46:30.058Z,1.87
2017-10-14T11:48:58.059Z,2.13
2017-10-14T11:51:26.121Z,1.67
2017-10-14T11:53:54.847Z,1.80
2017-10-14T11:56:22.907Z,2.50
2017-10-14T11:58:50.868Z,1.57
2017-10-14T12:01:19.163Z,1.63
2017-10-14T12:03:49.439Z,1.43
2017-10-14T12:06:17.452Z,1.77
2017-10-14T12:08:45.484Z,2.07
2017-10-14T12:11:15.862Z,4.43
2017-10-14T12:13:43.986Z,1.63
2017-10-14T12:16:20.385Z,3.10
2017-10-14T12:18:49.186Z,2.30
2017-10-14T12:21:17.174Z,0.93
2017-10-14T12:23:50.937Z,2.87
2017-10-14T12:26:18.985Z,1.80
2017-10-14T12:28:48.950Z,1.93
2017-10-14T12:31:16.938Z,1.90
2017-10-14T12:33:45.975Z,2.30
2017-10-14T12:36:15.827Z,1.10
2017-10-14T12:38:43.864Z,2.40
2017-10-14T12:41:14.068Z,1.27
2017-10-14T12:43:48.049Z,2.07
2017-10-14T12:46:17.007Z,1.37
2017-10-14T12:48:45.061Z,3.03
2017-10-14T12:51:13.235Z,3.27
2017-10-14T12:53:41.981Z,1.93
2017-10-14T12:56:09.889Z,1.10
2017-10-14T12:58:37.845Z,2.50
2017-10-14T13:01:05.839Z,3.33
2017-10-14T13:03:35.800Z,2.10
2017-10-14T13:06:03.711Z,1.27
2017-10-14T13:08:31.658Z,4.07
2017-10-14T13:10:59.552Z,1.00
2017-10-14T13:13:28.271Z,2.83
2017-10-14T13:15:56.148Z,1.20
2017-10-14T13:18:24.081Z,1.13
2017-10-14T13:20:51.970Z,5.77
2017-10-14T13:23:19.900Z,4.00
2017-10-14T13:25:47.801Z,2.23
2017-10-14T13:28:15.739Z,2.13
2017-10-14T13:30:43.662Z,3.67
2017-10-14T13:33:11.740Z,2.40
2017-10-14T13:35:39.635Z,5.17
2017-10-14T13:38:07.597Z,6.97
2017-10-14T13:40:35.545Z,2.27
2017-10-14T13:43:03.568Z,4.03
2017-10-14T13:45:31.450Z,1.70
2017-10-14T13:48:00.118Z,3.63
2017-10-14T13:50:28.047Z,2.43
2017-10-14T13:52:56.003Z,2.47
2017-10-14T13:55:23.926Z,9.00
2017-10-14T13:57:51.804Z,2.13
2017-10-14T14:00:20.506Z,2.20
2017-10-14T14:02:48.389Z,28.30
2017-10-14T14:05:16.308Z,16.60
2017-10-14T14:07:44.177Z,4.17
2017-10-14T14:10:12.091Z,3.33
2017-10-14T14:12:39.985Z,2.03
2017-10-14T14:15:07.924Z,3.47
2017-10-14T14:17:35.790Z,3.90
2017-10-14T14:20:03.722Z,1.30
2017-10-14T14:22:31.612Z,3.20
2017-10-14T14:25:01.547Z,2.20
2017-10-14T14:27:29.422Z,1.90
2017-10-14T14:29:57.349Z,2.90
2017-10-14T14:32:25.222Z,1.60
2017-10-14T14:34:53.210Z,2.20
2017-10-14T14:37:21.853Z,4.00
2017-10-14T14:39:49.779Z,2.90
2017-10-14T14:42:17.663Z,3.67
2017-10-14T14:44:45.563Z,3.60
2017-10-14T14:47:13.509Z,1.40
2017-10-14T14:49:41.400Z,3.00
2017-10-14T14:52:09.344Z,2.30
2017-10-14T14:54:38.105Z,3.30
2017-10-14T14:57:06.026Z,1.43
2017-10-14T14:59:33.892Z,3.80
2017-10-14T15:02:01.817Z,2.90
2017-10-14T15:04:29.742Z,3.13
2017-10-14T15:06:57.723Z,1.93
2017-10-14T15:09:25.592Z,3.50
2017-10-14T15:11:54.303Z,2.60
2017-10-14T15:14:23.549Z,3.63
2017-10-14T15:16:51.466Z,2.50
2017-10-14T15:19:19.352Z,7.30
2017-10-14T15:21:47.287Z,12.93
2017-10-14T15:24:15.253Z,2.93
2017-10-14T15:26:43.932Z,2.40
2017-10-14T15:29:11.819Z,4.27
2017-10-14T15:31:39.825Z,2.70
2017-10-14T15:34:07.762Z,6.00
2017-10-14T15:36:36.670Z,3.67
2017-10-14T15:39:05.333Z,2.30
2017-10-14T15:41:33.262Z,5.43
2017-10-14T15:44:01.124Z,2.70
2017-10-14T15:46:29.079Z,5.43
2017-10-14T15:48:56.949Z,6.60
2017-10-14T15:51:27.280Z,3.87
2017-10-14T15:53:57.453Z,3.47
2017-10-14T15:56:25.371Z,4.57
2017-10-14T15:58:53.310Z,7.17
2017-10-14T16:01:21.972Z,3.63
2017-10-14T16:03:49.893Z,11.83
2017-10-14T16:06:17.826Z,5.70
2017-10-14T16:08:45.784Z,6.70
2017-10-14T16:11:13.699Z,5.10
2017-10-14T16:13:41.637Z,12.97
2017-10-14T16:16:10.282Z,9.27
2017-10-14T16:18:38.223Z,3.93
2017-10-14T16:21:06.128Z,13.27
2017-10-14T16:23:34.310Z,12.03
2017-10-14T16:26:02.201Z,8.70
2017-10-14T16:28:30.179Z,5.27
2017-10-14T16:30:58.060Z,13.33
2017-10-14T16:33:26.246Z,10.10
2017-10-14T16:35:54.144Z,8.63
2017-10-14T16:38:22.076Z,4.23
2017-10-14T16:40:49.971Z,6.70
2017-10-14T16:43:17.906Z,6.37
2017-10-14T16:45:45.792Z,13.10
2017-10-14T16:48:13.707Z,8.53
2017-10-14T16:50:41.598Z,17.00
2017-10-14T16:53:13.893Z,18.57
2017-10-14T16:55:41.792Z,11.43
2017-10-14T16:58:09.763Z,12.60
2017-10-14T17:00:37.830Z,8.53
2017-10-14T17:03:05.768Z,8.40
2017-10-14T17:05:33.688Z,6.50
2017-10-14T17:08:01.558Z,6.60
2017-10-14T17:10:29.496Z,4.40
2017-10-14T17:12:57.426Z,5.90
2017-10-14T17:15:25.363Z,5.00
2017-10-14T17:17:53.244Z,3.93
2017-10-14T17:20:21.179Z,5.83
2017-10-14T17:22:49.076Z,13.03
2017-10-14T17:25:19.376Z,8.63
2017-10-14T17:27:47.509Z,4.67
2017-10-14T17:30:16.211Z,7.10
2017-10-14T17:32:44.104Z,9.60
2017-10-14T17:35:12.041Z,9.37
2017-10-14T17:37:39.934Z,3.93
2017-10-14T17:40:07.907Z,12.13
2017-10-14T17:42:35.812Z,10.23
2017-10-14T17:45:10.158Z,3.60
2017-10-14T17:47:38.860Z,5.13
2017-10-14T17:50:06.797Z,9.33
2017-10-14T17:52:34.689Z,11.07
2017-10-14T17:55:03.371Z,5.27
2017-10-14T17:57:32.034Z,18.10
2017-10-14T17:59:59.956Z,6.80
2017-10-14T18:02:27.887Z,5.30
2017-10-14T18:04:56.589Z,6.20
2017-10-14T18:07:30.707Z,5.90
2017-10-14T18:10:03.391Z,15.40
2017-10-14T18:12:31.523Z,4.67
2017-10-14T18:14:59.494Z,11.13
2017-10-14T18:17:27.376Z,9.70
2017-10-14T18:19:55.268Z,6.63
2017-10-14T18:22:23.221Z,5.73
2017-10-14T18:24:51.171Z,8.05
2017-10-14T18:27:19.155Z,7.87
2017-10-14T18:29:47.041Z,3.55
2017-10-14T18:32:21.781Z,7.27
2017-10-14T18:34:50.279Z,14.85
2017-10-14T18:37:18.246Z,6.90
2017-10-14T18:39:46.146Z,10.43
2017-10-14T18:42:14.116Z,10.00
2017-10-14T18:44:41.997Z,33.13
2017-10-14T18:47:10.016Z,6.07
2017-10-14T18:49:40.677Z,10.23
2017-10-14T18:52:14.829Z,4.85
2017-10-14T18:54:44.389Z,20.50
2017-10-14T18:57:14.472Z,7.75
2017-10-14T18:59:43.285Z,10.07
2017-10-14T19:02:13.906Z,5.47
2017-10-14T19:04:47.717Z,6.77
2017-10-14T19:07:15.926Z,5.47
2017-10-14T19:09:43.843Z,6.97
2017-10-14T19:12:11.829Z,9.80
2017-10-14T19:14:39.776Z,6.65
2017-10-14T19:17:12.053Z,5.32
2017-10-14T19:19:44.278Z,6.55
2017-10-14T19:22:16.664Z,9.20
2017-10-14T19:24:48.837Z,13.82
2017-10-14T19:27:21.116Z,8.95
2017-10-14T19:29:53.425Z,5.12
2017-10-14T19:32:26.143Z,10.85
2017-10-14T19:34:58.615Z,4.95
2017-10-14T19:37:30.850Z,12.75
2017-10-14T19:40:02.652Z,8.73
2017-10-14T19:42:36.746Z,8.57
2017-10-14T19:45:09.665Z,7.75
2017-10-14T19:47:40.515Z,8.05
2017-10-14T19:50:12.574Z,11.88
2017-10-14T19:52:45.075Z,14.25
2017-10-14T19:55:18.197Z,13.88
2017-10-14T19:57:50.065Z,9.82
2017-10-14T20:00:22.899Z,5.43
2017-10-14T20:02:52.824Z,7.82
2017-10-14T20:05:24.828Z,6.30
2017-10-14T20:07:57.826Z,5.50
2017-10-14T20:10:31.788Z,12.93
2017-10-14T20:13:07.792Z,6.30
2017-10-14T20:15:37.901Z,13.73
2017-10-14T20:18:11.469Z,11.38
2017-10-14T20:20:46.443Z,21.85
2017-10-14T20:23:21.337Z,9.70
2017-10-14T20:25:50.859Z,7.32
2017-10-14T20:28:27.917Z,12.27
2017-10-14T20:31:02.475Z,7.45
2017-10-14T20:33:34.352Z,9.70
2017-10-14T20:36:05.948Z,10.70
2017-10-14T20:38:40.303Z,6.10
2017-10-14T20:41:08.833Z,11.02
2017-10-14T20:43:38.572Z,7.18
2017-10-14T20:46:07.577Z,11.40
2017-10-14T20:48:38.988Z,11.23
2017-10-14T20:51:08.259Z,6.90
2017-10-14T20:53:38.886Z,12.43
2017-10-14T20:56:12.756Z,17.33
2017-10-14T20:58:49.888Z,22.60
2017-10-14T21:01:18.819Z,12.82
2017-10-14T21:03:49.162Z,12.73
2017-10-14T21:06:23.047Z,12.43
2017-10-14T21:08:51.641Z,13.70
2017-10-14T21:11:20.734Z,15.77
2017-10-14T21:13:53.745Z,16.40
2017-10-14T21:16:23.392Z,17.27
2017-10-14T21:18:57.256Z,10.75
2017-10-14T21:21:29.304Z,15.05
2017-10-14T21:24:04.387Z,16.98
2017-10-14T21:26:37.654Z,18.10
2017-10-14T21:29:11.904Z,14.77
2017-10-14T21:31:45.495Z,8.13
2017-10-14T21:34:14.277Z,17.30
2017-10-14T21:36:47.380Z,10.98
2017-10-14T21:39:23.465Z,12.60
2017-10-14T21:41:55.892Z,10.68
2017-10-14T21:44:31.340Z,8.13
2017-10-14T21:47:06.107Z,12.18
2017-10-14T21:49:37.453Z,7.82
2017-10-14T21:52:14.166Z,13.60
2017-10-14T21:54:49.601Z,10.63
2017-10-14T21:57:18.394Z,12.40
2017-10-14T21:59:47.102Z,20.05
2017-10-14T22:02:16.166Z,9.70
2017-10-14T22:04:49.806Z,15.23
2017-10-14T22:07:24.164Z,10.02
2017-10-14T22:09:58.553Z,7.35
2017-10-14T22:12:27.894Z,8.40
2017-10-14T22:14:56.491Z,7.65
2017-10-14T22:17:25.795Z,10.32
2017-10-14T22:19:56.397Z,8.23
2017-10-14T22:22:31.620Z,9.23
2017-10-14T22:25:00.515Z,6.82
2017-10-14T22:27:34.699Z,5.25
2017-10-14T22:30:08.290Z,13.90
2017-10-14T22:32:38.505Z,15.18
2017-10-14T22:35:11.090Z,11.68
2017-10-14T22:37:40.878Z,14.77
2017-10-14T22:40:16.195Z,11.52
2017-10-14T22:42:46.325Z,9.60
2017-10-14T22:45:16.225Z,10.65
2017-10-14T22:47:46.564Z,13.23
2017-10-14T22:50:18.849Z,13.57
2017-10-14T22:52:47.348Z,15.57
2017-10-14T22:55:21.868Z,11.07
2017-10-14T22:57:50.373Z,9.40
2017-10-14T23:00:26.016Z,10.25
2017-10-14T23:02:55.470Z,15.70
2017-10-14T23:05:26.902Z,18.27
2017-10-14T23:08:01.793Z,11.75
2017-10-14T23:10:30.873Z,11.12
2017-10-14T23:13:00.479Z,11.77
2017-10-14T23:15:28.875Z,12.50
2017-10-14T23:17:58.499Z,12.52
2017-10-14T23:20:29.602Z,13.18
2017-10-14T23:23:01.091Z,17.42
2017-10-14T23:25:29.524Z,17.17
2017-10-14T23:27:59.942Z,22.27
2017-10-14T23:30:30.323Z,23.42
2017-10-14T23:32:58.863Z,18.77
2017-10-14T23:35:33.366Z,26.45
2017-10-14T23:38:08.752Z,36.58
2017-10-14T23:40:40.126Z,21.67
2017-10-14T23:43:17.679Z,19.20
2017-10-14T23:45:46.061Z,36.08
2017-10-14T23:48:14.350Z,30.62
2017-10-14T23:50:44.560Z,25.20
2017-10-14T23:53:14.837Z,18.40
2017-10-14T23:55:46.569Z,24.75
2017-10-14T23:58:18.860Z,19.40
